Vamdrup, Denmark
Current Conditions -  °F | °C
As of 5:50 AM on Friday 31 Oct 2014 (Local Time) from EKSP Reporting Station
Drizzle Drizzle  
Wind Chill: 50°   Ceiling: 200
Heat Index: 50°   Visibility: 1.2mi
Dew Point: 48°   Wind: 6mph
Humidity: 94%   Direction: 150°SSE
Pressure: 30.15"   Gusts: NA
Location:  55.43°N, 9.28°E
Report Text: EKSP 310450Z 15005KT 2000 -DZ BR BKN002 BKN004 10/09 Q1021
Loading
Personal Weather Stations






























Interactive Weather Map
Tropical Storm Tracking
New forecast layout! Learn more

10-Day Weather Forecast

Advertisements
Track Severe Weather on mobile